sensor_id;sensor_type;location;lat;lon;timestamp;P1;durP1;ratioP1;P2;durP2;ratioP2
54995;SDS011;40893;47.146;9.126;2022-07-24T00:01:34;9.95;;;9.05;;
54995;SDS011;40893;47.146;9.126;2022-07-24T00:04:00;12.50;;;9.38;;
54995;SDS011;40893;47.146;9.126;2022-07-24T00:06:25;12.20;;;9.50;;
54995;SDS011;40893;47.146;9.126;2022-07-24T00:08:51;10.68;;;9.38;;
54995;SDS011;40893;47.146;9.126;2022-07-24T00:11:17;11.27;;;9.38;;
54995;SDS011;40893;47.146;9.126;2022-07-24T00:13:43;10.38;;;9.27;;
54995;SDS011;40893;47.146;9.126;2022-07-24T00:16:08;11.50;;;9.20;;
54995;SDS011;40893;47.146;9.126;2022-07-24T00:18:34;14.07;;;9.35;;
54995;SDS011;40893;47.146;9.126;2022-07-24T00:21:00;9.70;;;8.68;;
54995;SDS011;40893;47.146;9.126;2022-07-24T00:23:25;10.68;;;9.57;;
54995;SDS011;40893;47.146;9.126;2022-07-24T00:25:51;12.30;;;9.70;;
54995;SDS011;40893;47.146;9.126;2022-07-24T00:28:17;14.25;;;9.55;;
54995;SDS011;40893;47.146;9.126;2022-07-24T00:30:43;11.60;;;9.80;;
54995;SDS011;40893;47.146;9.126;2022-07-24T00:33:08;12.32;;;10.23;;
54995;SDS011;40893;47.146;9.126;2022-07-24T00:35:34;16.13;;;9.95;;
54995;SDS011;40893;47.146;9.126;2022-07-24T00:38:00;12.18;;;9.68;;
54995;SDS011;40893;47.146;9.126;2022-07-24T00:40:26;11.20;;;10.10;;
54995;SDS011;40893;47.146;9.126;2022-07-24T00:42:52;11.13;;;10.02;;
54995;SDS011;40893;47.146;9.126;2022-07-24T00:45:18;11.43;;;10.25;;
54995;SDS011;40893;47.146;9.126;2022-07-24T00:47:44;10.48;;;9.18;;
54995;SDS011;40893;47.146;9.126;2022-07-24T00:50:09;12.48;;;10.15;;
54995;SDS011;40893;47.146;9.126;2022-07-24T00:52:35;12.27;;;11.07;;
54995;SDS011;40893;47.146;9.126;2022-07-24T00:55:02;12.65;;;10.50;;
54995;SDS011;40893;47.146;9.126;2022-07-24T00:57:29;13.20;;;10.52;;
54995;SDS011;40893;47.146;9.126;2022-07-24T00:59:55;11.55;;;10.10;;
54995;SDS011;40893;47.146;9.126;2022-07-24T01:02:20;13.32;;;10.02;;
54995;SDS011;40893;47.146;9.126;2022-07-24T01:04:46;13.18;;;10.80;;
54995;SDS011;40893;47.146;9.126;2022-07-24T01:07:13;14.38;;;10.93;;
54995;SDS011;40893;47.146;9.126;2022-07-24T01:09:38;13.55;;;10.50;;
54995;SDS011;40893;47.146;9.126;2022-07-24T01:12:05;11.55;;;10.13;;
54995;SDS011;40893;47.146;9.126;2022-07-24T01:14:31;12.73;;;10.02;;
54995;SDS011;40893;47.146;9.126;2022-07-24T01:16:57;12.10;;;9.82;;
54995;SDS011;40893;47.146;9.126;2022-07-24T01:19:23;12.00;;;9.65;;
54995;SDS011;40893;47.146;9.126;2022-07-24T01:21:49;15.38;;;10.23;;
54995;SDS011;40893;47.146;9.126;2022-07-24T01:24:17;13.77;;;11.35;;
54995;SDS011;40893;47.146;9.126;2022-07-24T01:26:43;12.30;;;10.57;;
54995;SDS011;40893;47.146;9.126;2022-07-24T01:29:09;11.88;;;10.15;;
54995;SDS011;40893;47.146;9.126;2022-07-24T01:31:35;13.73;;;11.05;;
54995;SDS011;40893;47.146;9.126;2022-07-24T01:34:01;12.00;;;10.35;;
54995;SDS011;40893;47.146;9.126;2022-07-24T01:36:27;10.43;;;9.35;;
54995;SDS011;40893;47.146;9.126;2022-07-24T01:38:52;13.95;;;10.27;;
54995;SDS011;40893;47.146;9.126;2022-07-24T01:41:18;13.85;;;10.55;;
54995;SDS011;40893;47.146;9.126;2022-07-24T01:43:43;11.27;;;10.18;;
54995;SDS011;40893;47.146;9.126;2022-07-24T01:46:09;12.23;;;10.93;;
54995;SDS011;40893;47.146;9.126;2022-07-24T01:48:36;12.02;;;10.82;;
54995;SDS011;40893;47.146;9.126;2022-07-24T01:51:01;13.43;;;10.70;;
54995;SDS011;40893;47.146;9.126;2022-07-24T01:53:27;10.90;;;9.82;;
54995;SDS011;40893;47.146;9.126;2022-07-24T01:55:52;14.07;;;10.65;;
54995;SDS011;40893;47.146;9.126;2022-07-24T01:58:18;13.73;;;10.80;;
54995;SDS011;40893;47.146;9.126;2022-07-24T02:00:44;13.10;;;9.93;;
54995;SDS011;40893;47.146;9.126;2022-07-24T02:03:10;11.48;;;9.85;;
54995;SDS011;40893;47.146;9.126;2022-07-24T02:05:36;11.77;;;9.98;;
54995;SDS011;40893;47.146;9.126;2022-07-24T02:08:01;11.52;;;9.65;;
54995;SDS011;40893;47.146;9.126;2022-07-24T02:10:27;11.43;;;9.20;;
54995;SDS011;40893;47.146;9.126;2022-07-24T02:12:54;13.07;;;10.23;;
54995;SDS011;40893;47.146;9.126;2022-07-24T02:15:20;12.38;;;10.00;;
54995;SDS011;40893;47.146;9.126;2022-07-24T02:17:47;10.95;;;9.82;;
54995;SDS011;40893;47.146;9.126;2022-07-24T02:20:14;11.27;;;10.07;;
54995;SDS011;40893;47.146;9.126;2022-07-24T02:22:40;14.52;;;10.30;;
54995;SDS011;40893;47.146;9.126;2022-07-24T02:25:06;13.60;;;10.82;;
54995;SDS011;40893;47.146;9.126;2022-07-24T02:27:32;11.68;;;9.88;;
54995;SDS011;40893;47.146;9.126;2022-07-24T02:29:58;10.82;;;9.65;;
54995;SDS011;40893;47.146;9.126;2022-07-24T02:32:23;12.32;;;9.52;;
54995;SDS011;40893;47.146;9.126;2022-07-24T02:34:49;12.68;;;10.45;;
54995;SDS011;40893;47.146;9.126;2022-07-24T02:37:15;12.65;;;10.80;;
54995;SDS011;40893;47.146;9.126;2022-07-24T02:39:41;11.13;;;9.68;;
54995;SDS011;40893;47.146;9.126;2022-07-24T02:42:06;12.35;;;10.02;;
54995;SDS011;40893;47.146;9.126;2022-07-24T02:44:32;15.40;;;10.57;;
54995;SDS011;40893;47.146;9.126;2022-07-24T02:46:57;14.52;;;11.40;;
54995;SDS011;40893;47.146;9.126;2022-07-24T02:49:23;11.77;;;10.57;;
54995;SDS011;40893;47.146;9.126;2022-07-24T02:51:48;14.02;;;10.13;;
54995;SDS011;40893;47.146;9.126;2022-07-24T02:54:14;11.73;;;9.85;;
54995;SDS011;40893;47.146;9.126;2022-07-24T02:56:40;13.48;;;10.77;;
54995;SDS011;40893;47.146;9.126;2022-07-24T02:59:05;13.18;;;10.45;;
54995;SDS011;40893;47.146;9.126;2022-07-24T03:01:31;14.23;;;10.98;;
54995;SDS011;40893;47.146;9.126;2022-07-24T03:03:56;13.20;;;10.88;;
54995;SDS011;40893;47.146;9.126;2022-07-24T03:06:21;11.05;;;10.00;;
54995;SDS011;40893;47.146;9.126;2022-07-24T03:08:47;11.73;;;10.07;;
54995;SDS011;40893;47.146;9.126;2022-07-24T03:11:13;13.15;;;9.75;;
54995;SDS011;40893;47.146;9.126;2022-07-24T03:13:39;10.73;;;9.63;;
54995;SDS011;40893;47.146;9.126;2022-07-24T03:16:07;11.07;;;9.88;;
54995;SDS011;40893;47.146;9.126;2022-07-24T03:18:33;11.65;;;10.45;;
54995;SDS011;40893;47.146;9.126;2022-07-24T03:20:59;13.68;;;10.82;;
54995;SDS011;40893;47.146;9.126;2022-07-24T03:23:24;11.02;;;9.73;;
54995;SDS011;40893;47.146;9.126;2022-07-24T03:25:49;15.73;;;10.35;;
54995;SDS011;40893;47.146;9.126;2022-07-24T03:28:15;13.48;;;9.93;;
54995;SDS011;40893;47.146;9.126;2022-07-24T03:30:41;11.45;;;10.25;;
54995;SDS011;40893;47.146;9.126;2022-07-24T03:33:06;13.45;;;10.68;;
54995;SDS011;40893;47.146;9.126;2022-07-24T03:35:32;12.55;;;9.90;;
54995;SDS011;40893;47.146;9.126;2022-07-24T03:37:57;12.10;;;10.18;;
54995;SDS011;40893;47.146;9.126;2022-07-24T03:40:23;11.43;;;10.15;;
54995;SDS011;40893;47.146;9.126;2022-07-24T03:42:48;14.38;;;10.32;;
54995;SDS011;40893;47.146;9.126;2022-07-24T03:45:14;11.07;;;9.98;;
54995;SDS011;40893;47.146;9.126;2022-07-24T03:47:39;12.38;;;9.73;;
54995;SDS011;40893;47.146;9.126;2022-07-24T03:50:05;14.20;;;10.02;;
54995;SDS011;40893;47.146;9.126;2022-07-24T03:52:31;14.45;;;10.77;;
54995;SDS011;40893;47.146;9.126;2022-07-24T03:54:57;11.35;;;10.15;;
54995;SDS011;40893;47.146;9.126;2022-07-24T03:57:22;12.45;;;10.20;;
54995;SDS011;40893;47.146;9.126;2022-07-24T03:59:48;13.35;;;10.43;;
54995;SDS011;40893;47.146;9.126;2022-07-24T04:02:14;15.30;;;10.50;;
54995;SDS011;40893;47.146;9.126;2022-07-24T04:04:40;11.82;;;10.63;;
54995;SDS011;40893;47.146;9.126;2022-07-24T04:07:05;11.48;;;10.02;;
54995;SDS011;40893;47.146;9.126;2022-07-24T04:09:31;13.75;;;10.60;;
54995;SDS011;40893;47.146;9.126;2022-07-24T04:11:56;12.73;;;9.93;;
54995;SDS011;40893;47.146;9.126;2022-07-24T04:14:22;10.95;;;9.85;;
54995;SDS011;40893;47.146;9.126;2022-07-24T04:16:48;11.10;;;10.00;;
54995;SDS011;40893;47.146;9.126;2022-07-24T04:19:13;15.18;;;10.45;;
54995;SDS011;40893;47.146;9.126;2022-07-24T04:21:39;13.00;;;10.57;;
54995;SDS011;40893;47.146;9.126;2022-07-24T04:24:05;13.20;;;10.60;;
54995;SDS011;40893;47.146;9.126;2022-07-24T04:26:31;14.25;;;11.02;;
54995;SDS011;40893;47.146;9.126;2022-07-24T04:28:57;11.70;;;10.35;;
54995;SDS011;40893;47.146;9.126;2022-07-24T04:31:22;11.18;;;10.07;;
54995;SDS011;40893;47.146;9.126;2022-07-24T04:33:47;11.50;;;10.32;;
54995;SDS011;40893;47.146;9.126;2022-07-24T04:36:13;15.52;;;11.00;;
54995;SDS011;40893;47.146;9.126;2022-07-24T04:38:38;12.45;;;9.80;;
54995;SDS011;40893;47.146;9.126;2022-07-24T04:41:04;14.35;;;9.98;;
54995;SDS011;40893;47.146;9.126;2022-07-24T04:43:30;12.05;;;9.73;;
54995;SDS011;40893;47.146;9.126;2022-07-24T04:45:55;12.05;;;10.00;;
54995;SDS011;40893;47.146;9.126;2022-07-24T04:48:21;11.35;;;10.13;;
54995;SDS011;40893;47.146;9.126;2022-07-24T04:50:46;11.20;;;10.00;;
54995;SDS011;40893;47.146;9.126;2022-07-24T04:53:12;10.93;;;9.93;;
54995;SDS011;40893;47.146;9.126;2022-07-24T04:55:37;11.90;;;9.75;;
54995;SDS011;40893;47.146;9.126;2022-07-24T04:58:03;12.68;;;9.82;;
54995;SDS011;40893;47.146;9.126;2022-07-24T05:00:29;12.63;;;10.25;;
54995;SDS011;40893;47.146;9.126;2022-07-24T05:02:54;15.70;;;11.35;;
54995;SDS011;40893;47.146;9.126;2022-07-24T05:05:20;11.77;;;10.52;;
54995;SDS011;40893;47.146;9.126;2022-07-24T05:07:45;15.50;;;11.45;;
54995;SDS011;40893;47.146;9.126;2022-07-24T05:10:11;12.93;;;9.98;;
54995;SDS011;40893;47.146;9.126;2022-07-24T05:12:36;13.88;;;10.77;;
54995;SDS011;40893;47.146;9.126;2022-07-24T05:15:03;13.50;;;11.02;;
54995;SDS011;40893;47.146;9.126;2022-07-24T05:17:29;14.57;;;11.10;;
54995;SDS011;40893;47.146;9.126;2022-07-24T05:19:55;14.73;;;10.80;;
54995;SDS011;40893;47.146;9.126;2022-07-24T05:22:20;11.38;;;10.27;;
54995;SDS011;40893;47.146;9.126;2022-07-24T05:24:46;11.68;;;10.48;;
54995;SDS011;40893;47.146;9.126;2022-07-24T05:27:11;12.27;;;10.82;;
54995;SDS011;40893;47.146;9.126;2022-07-24T05:29:37;13.30;;;11.35;;
54995;SDS011;40893;47.146;9.126;2022-07-24T05:32:02;11.95;;;10.75;;
54995;SDS011;40893;47.146;9.126;2022-07-24T05:34:28;11.90;;;10.70;;
54995;SDS011;40893;47.146;9.126;2022-07-24T05:36:54;11.60;;;10.27;;
54995;SDS011;40893;47.146;9.126;2022-07-24T05:39:20;13.23;;;10.02;;
54995;SDS011;40893;47.146;9.126;2022-07-24T05:41:45;12.02;;;10.80;;
54995;SDS011;40893;47.146;9.126;2022-07-24T05:44:11;12.95;;;10.45;;
54995;SDS011;40893;47.146;9.126;2022-07-24T05:46:36;14.57;;;10.52;;
54995;SDS011;40893;47.146;9.126;2022-07-24T05:49:02;12.98;;;10.90;;
54995;SDS011;40893;47.146;9.126;2022-07-24T05:51:27;11.98;;;10.55;;
54995;SDS011;40893;47.146;9.126;2022-07-24T05:53:53;11.35;;;10.23;;
54995;SDS011;40893;47.146;9.126;2022-07-24T05:56:18;13.57;;;10.13;;
54995;SDS011;40893;47.146;9.126;2022-07-24T05:58:44;12.57;;;10.27;;
54995;SDS011;40893;47.146;9.126;2022-07-24T06:01:09;12.05;;;10.48;;
54995;SDS011;40893;47.146;9.126;2022-07-24T06:03:35;12.70;;;10.52;;
54995;SDS011;40893;47.146;9.126;2022-07-24T06:06:02;12.30;;;11.00;;
54995;SDS011;40893;47.146;9.126;2022-07-24T06:08:29;13.45;;;10.48;;
54995;SDS011;40893;47.146;9.126;2022-07-24T06:10:54;12.48;;;10.18;;
54995;SDS011;40893;47.146;9.126;2022-07-24T06:13:20;11.52;;;9.77;;
54995;SDS011;40893;47.146;9.126;2022-07-24T06:15:45;11.38;;;9.10;;
54995;SDS011;40893;47.146;9.126;2022-07-24T06:18:11;10.63;;;9.50;;
54995;SDS011;40893;47.146;9.126;2022-07-24T06:20:36;10.23;;;9.15;;
54995;SDS011;40893;47.146;9.126;2022-07-24T06:23:02;12.13;;;9.25;;
54995;SDS011;40893;47.146;9.126;2022-07-24T06:25:27;10.82;;;9.70;;
54995;SDS011;40893;47.146;9.126;2022-07-24T06:27:53;14.27;;;10.73;;
54995;SDS011;40893;47.146;9.126;2022-07-24T06:30:25;10.82;;;9.68;;
54995;SDS011;40893;47.146;9.126;2022-07-24T06:32:53;10.27;;;9.07;;
54995;SDS011;40893;47.146;9.126;2022-07-24T06:35:23;10.88;;;9.75;;
54995;SDS011;40893;47.146;9.126;2022-07-24T06:37:49;9.88;;;8.88;;
54995;SDS011;40893;47.146;9.126;2022-07-24T06:40:16;11.43;;;9.18;;
54995;SDS011;40893;47.146;9.126;2022-07-24T06:42:42;9.98;;;9.07;;
54995;SDS011;40893;47.146;9.126;2022-07-24T06:45:08;10.73;;;9.20;;
54995;SDS011;40893;47.146;9.126;2022-07-24T06:47:34;11.50;;;9.45;;
54995;SDS011;40893;47.146;9.126;2022-07-24T06:50:00;12.88;;;9.50;;
54995;SDS011;40893;47.146;9.126;2022-07-24T06:52:25;10.70;;;9.40;;
54995;SDS011;40893;47.146;9.126;2022-07-24T06:54:51;11.30;;;9.15;;
54995;SDS011;40893;47.146;9.126;2022-07-24T06:57:16;11.52;;;10.18;;
54995;SDS011;40893;47.146;9.126;2022-07-24T06:59:43;12.93;;;8.85;;
54995;SDS011;40893;47.146;9.126;2022-07-24T07:02:09;10.70;;;8.40;;
54995;SDS011;40893;47.146;9.126;2022-07-24T07:04:34;11.60;;;9.23;;
54995;SDS011;40893;47.146;9.126;2022-07-24T07:07:00;9.15;;;8.25;;
54995;SDS011;40893;47.146;9.126;2022-07-24T07:09:26;9.18;;;8.13;;
54995;SDS011;40893;47.146;9.126;2022-07-24T07:11:51;10.40;;;8.18;;
54995;SDS011;40893;47.146;9.126;2022-07-24T07:14:17;10.35;;;8.93;;
54995;SDS011;40893;47.146;9.126;2022-07-24T07:16:42;9.60;;;8.68;;
54995;SDS011;40893;47.146;9.126;2022-07-24T07:19:08;10.88;;;8.32;;
54995;SDS011;40893;47.146;9.126;2022-07-24T07:21:33;9.63;;;8.63;;
54995;SDS011;40893;47.146;9.126;2022-07-24T07:24:01;10.20;;;8.30;;
54995;SDS011;40893;47.146;9.126;2022-07-24T07:26:27;9.90;;;9.00;;
54995;SDS011;40893;47.146;9.126;2022-07-24T07:28:52;12.20;;;9.00;;
54995;SDS011;40893;47.146;9.126;2022-07-24T07:31:18;10.25;;;8.10;;
54995;SDS011;40893;47.146;9.126;2022-07-24T07:33:43;10.95;;;8.30;;
54995;SDS011;40893;47.146;9.126;2022-07-24T07:36:09;8.75;;;7.85;;
54995;SDS011;40893;47.146;9.126;2022-07-24T07:38:35;11.00;;;8.90;;
54995;SDS011;40893;47.146;9.126;2022-07-24T07:41:02;12.73;;;8.30;;
54995;SDS011;40893;47.146;9.126;2022-07-24T07:43:28;9.52;;;7.82;;
54995;SDS011;40893;47.146;9.126;2022-07-24T07:45:54;9.38;;;8.48;;
54995;SDS011;40893;47.146;9.126;2022-07-24T07:48:20;9.82;;;8.05;;
54995;SDS011;40893;47.146;9.126;2022-07-24T07:50:45;10.02;;;8.60;;
54995;SDS011;40893;47.146;9.126;2022-07-24T07:53:11;9.52;;;8.50;;
54995;SDS011;40893;47.146;9.126;2022-07-24T07:55:36;9.48;;;8.52;;
54995;SDS011;40893;47.146;9.126;2022-07-24T07:58:02;10.07;;;8.52;;
54995;SDS011;40893;47.146;9.126;2022-07-24T08:00:28;9.35;;;8.38;;
54995;SDS011;40893;47.146;9.126;2022-07-24T08:02:54;9.60;;;8.55;;
54995;SDS011;40893;47.146;9.126;2022-07-24T08:05:19;10.63;;;8.38;;
54995;SDS011;40893;47.146;9.126;2022-07-24T08:07:45;8.85;;;7.82;;
54995;SDS011;40893;47.146;9.126;2022-07-24T08:10:10;8.90;;;8.00;;
54995;SDS011;40893;47.146;9.126;2022-07-24T08:12:36;9.05;;;8.15;;
54995;SDS011;40893;47.146;9.126;2022-07-24T08:15:02;8.75;;;7.85;;
54995;SDS011;40893;47.146;9.126;2022-07-24T08:17:27;8.88;;;7.85;;
54995;SDS011;40893;47.146;9.126;2022-07-24T08:19:53;9.30;;;8.15;;
54995;SDS011;40893;47.146;9.126;2022-07-24T08:22:18;9.50;;;8.23;;
54995;SDS011;40893;47.146;9.126;2022-07-24T08:24:44;8.82;;;7.93;;
54995;SDS011;40893;47.146;9.126;2022-07-24T08:27:09;8.90;;;7.97;;
54995;SDS011;40893;47.146;9.126;2022-07-24T08:29:35;10.27;;;8.50;;
54995;SDS011;40893;47.146;9.126;2022-07-24T08:32:00;9.98;;;8.75;;
54995;SDS011;40893;47.146;9.126;2022-07-24T08:34:26;9.35;;;8.20;;
54995;SDS011;40893;47.146;9.126;2022-07-24T08:36:51;9.32;;;8.35;;
54995;SDS011;40893;47.146;9.126;2022-07-24T08:39:17;9.52;;;8.48;;
54995;SDS011;40893;47.146;9.126;2022-07-24T08:41:43;9.45;;;8.55;;
54995;SDS011;40893;47.146;9.126;2022-07-24T08:44:10;8.70;;;7.90;;
54995;SDS011;40893;47.146;9.126;2022-07-24T08:46:36;11.07;;;8.77;;
54995;SDS011;40893;47.146;9.126;2022-07-24T08:49:02;11.10;;;8.98;;
54995;SDS011;40893;47.146;9.126;2022-07-24T08:51:38;8.95;;;8.05;;
54995;SDS011;40893;47.146;9.126;2022-07-24T08:54:08;10.30;;;8.27;;
54995;SDS011;40893;47.146;9.126;2022-07-24T08:56:39;8.77;;;7.97;;
54995;SDS011;40893;47.146;9.126;2022-07-24T08:59:05;9.77;;;8.05;;
54995;SDS011;40893;47.146;9.126;2022-07-24T09:01:40;11.00;;;8.88;;
54995;SDS011;40893;47.146;9.126;2022-07-24T09:04:06;8.80;;;7.82;;
54995;SDS011;40893;47.146;9.126;2022-07-24T09:06:31;10.95;;;7.93;;
54995;SDS011;40893;47.146;9.126;2022-07-24T09:08:59;8.93;;;8.13;;
54995;SDS011;40893;47.146;9.126;2022-07-24T09:11:28;10.82;;;8.20;;
54995;SDS011;40893;47.146;9.126;2022-07-24T09:13:58;9.32;;;8.32;;
54995;SDS011;40893;47.146;9.126;2022-07-24T09:16:44;8.85;;;7.95;;
54995;SDS011;40893;47.146;9.126;2022-07-24T09:19:10;10.88;;;8.45;;
54995;SDS011;40893;47.146;9.126;2022-07-24T09:21:37;9.52;;;8.48;;
54995;SDS011;40893;47.146;9.126;2022-07-24T09:24:14;11.02;;;8.18;;
54995;SDS011;40893;47.146;9.126;2022-07-24T09:26:52;8.90;;;7.35;;
54995;SDS011;40893;47.146;9.126;2022-07-24T09:29:21;8.70;;;7.78;;
54995;SDS011;40893;47.146;9.126;2022-07-24T09:31:58;8.65;;;7.70;;
54995;SDS011;40893;47.146;9.126;2022-07-24T09:34:25;8.80;;;7.97;;
54995;SDS011;40893;47.146;9.126;2022-07-24T09:39:26;9.38;;;8.30;;
54995;SDS011;40893;47.146;9.126;2022-07-24T09:41:54;9.30;;;7.60;;
54995;SDS011;40893;47.146;9.126;2022-07-24T09:44:22;8.70;;;8.00;;
54995;SDS011;40893;47.146;9.126;2022-07-24T09:46:58;9.43;;;7.78;;
54995;SDS011;40893;47.146;9.126;2022-07-24T09:49:25;10.18;;;8.68;;
54995;SDS011;40893;47.146;9.126;2022-07-24T09:54:44;9.02;;;7.97;;
54995;SDS011;40893;47.146;9.126;2022-07-24T09:59:49;10.45;;;7.90;;
54995;SDS011;40893;47.146;9.126;2022-07-24T10:02:16;8.65;;;7.70;;
54995;SDS011;40893;47.146;9.126;2022-07-24T10:04:43;9.32;;;7.97;;
54995;SDS011;40893;47.146;9.126;2022-07-24T10:07:10;9.38;;;7.88;;
54995;SDS011;40893;47.146;9.126;2022-07-24T10:09:37;9.63;;;8.63;;
54995;SDS011;40893;47.146;9.126;2022-07-24T10:12:11;10.50;;;8.50;;
54995;SDS011;40893;47.146;9.126;2022-07-24T10:14:58;9.10;;;7.60;;
54995;SDS011;40893;47.146;9.126;2022-07-24T10:20:40;9.80;;;8.77;;
54995;SDS011;40893;47.146;9.126;2022-07-24T10:23:09;8.70;;;7.90;;
54995;SDS011;40893;47.146;9.126;2022-07-24T10:25:54;10.52;;;8.35;;
54995;SDS011;40893;47.146;9.126;2022-07-24T10:28:42;9.27;;;8.32;;
54995;SDS011;40893;47.146;9.126;2022-07-24T10:31:09;9.80;;;8.07;;
54995;SDS011;40893;47.146;9.126;2022-07-24T10:33:37;10.32;;;9.25;;
54995;SDS011;40893;47.146;9.126;2022-07-24T10:36:06;9.80;;;8.88;;
54995;SDS011;40893;47.146;9.126;2022-07-24T10:38:40;9.27;;;8.38;;
54995;SDS011;40893;47.146;9.126;2022-07-24T10:41:19;10.20;;;9.02;;
54995;SDS011;40893;47.146;9.126;2022-07-24T10:49:41;10.20;;;9.30;;
54995;SDS011;40893;47.146;9.126;2022-07-24T10:52:28;11.25;;;9.00;;
54995;SDS011;40893;47.146;9.126;2022-07-24T10:58:03;10.25;;;9.35;;
54995;SDS011;40893;47.146;9.126;2022-07-24T11:00:43;12.23;;;10.15;;
54995;SDS011;40893;47.146;9.126;2022-07-24T11:03:23;10.60;;;9.18;;
54995;SDS011;40893;47.146;9.126;2022-07-24T11:06:04;13.32;;;10.18;;
54995;SDS011;40893;47.146;9.126;2022-07-24T11:08:31;10.70;;;9.40;;
54995;SDS011;40893;47.146;9.126;2022-07-24T11:11:06;10.98;;;9.88;;
54995;SDS011;40893;47.146;9.126;2022-07-24T11:18:37;10.98;;;9.68;;
54995;SDS011;40893;47.146;9.126;2022-07-24T11:21:03;11.23;;;10.13;;
54995;SDS011;40893;47.146;9.126;2022-07-24T11:23:29;10.20;;;9.15;;
54995;SDS011;40893;47.146;9.126;2022-07-24T11:31:58;13.45;;;10.40;;
54995;SDS011;40893;47.146;9.126;2022-07-24T11:34:26;11.95;;;10.02;;
54995;SDS011;40893;47.146;9.126;2022-07-24T11:36:53;11.50;;;10.27;;
54995;SDS011;40893;47.146;9.126;2022-07-24T11:39:25;12.73;;;10.77;;
54995;SDS011;40893;47.146;9.126;2022-07-24T11:42:00;12.73;;;11.40;;
54995;SDS011;40893;47.146;9.126;2022-07-24T11:44:28;13.23;;;10.48;;
54995;SDS011;40893;47.146;9.126;2022-07-24T11:46:59;11.32;;;10.25;;
54995;SDS011;40893;47.146;9.126;2022-07-24T11:49:30;11.77;;;10.65;;
54995;SDS011;40893;47.146;9.126;2022-07-24T11:51:55;11.88;;;10.65;;
54995;SDS011;40893;47.146;9.126;2022-07-24T11:54:22;11.63;;;10.40;;
54995;SDS011;40893;47.146;9.126;2022-07-24T11:56:51;11.23;;;10.15;;
54995;SDS011;40893;47.146;9.126;2022-07-24T11:59:22;10.57;;;9.48;;
54995;SDS011;40893;47.146;9.126;2022-07-24T12:01:56;13.43;;;10.52;;
54995;SDS011;40893;47.146;9.126;2022-07-24T12:04:28;11.27;;;9.82;;
54995;SDS011;40893;47.146;9.126;2022-07-24T12:06:54;10.75;;;9.65;;
54995;SDS011;40893;47.146;9.126;2022-07-24T12:09:19;11.23;;;10.13;;
54995;SDS011;40893;47.146;9.126;2022-07-24T12:11:45;11.93;;;10.43;;
54995;SDS011;40893;47.146;9.126;2022-07-24T12:16:43;11.52;;;10.35;;
54995;SDS011;40893;47.146;9.126;2022-07-24T12:19:23;11.52;;;10.32;;
54995;SDS011;40893;47.146;9.126;2022-07-24T12:21:52;12.07;;;10.88;;
54995;SDS011;40893;47.146;9.126;2022-07-24T12:24:19;12.25;;;9.57;;
54995;SDS011;40893;47.146;9.126;2022-07-24T12:26:53;10.90;;;9.88;;
54995;SDS011;40893;47.146;9.126;2022-07-24T12:29:20;10.95;;;10.00;;
54995;SDS011;40893;47.146;9.126;2022-07-24T12:31:47;11.35;;;10.23;;
54995;SDS011;40893;47.146;9.126;2022-07-24T12:34:13;11.40;;;10.23;;
54995;SDS011;40893;47.146;9.126;2022-07-24T12:36:38;12.20;;;9.88;;
54995;SDS011;40893;47.146;9.126;2022-07-24T12:39:06;12.07;;;10.88;;
54995;SDS011;40893;47.146;9.126;2022-07-24T12:41:39;11.30;;;10.07;;
54995;SDS011;40893;47.146;9.126;2022-07-24T12:44:07;11.10;;;10.10;;
54995;SDS011;40893;47.146;9.126;2022-07-24T12:46:34;13.00;;;10.73;;
54995;SDS011;40893;47.146;9.126;2022-07-24T12:49:11;11.52;;;10.27;;
54995;SDS011;40893;47.146;9.126;2022-07-24T12:51:51;11.30;;;10.30;;
54995;SDS011;40893;47.146;9.126;2022-07-24T12:56:55;15.10;;;10.95;;
54995;SDS011;40893;47.146;9.126;2022-07-24T12:59:31;11.40;;;10.30;;
54995;SDS011;40893;47.146;9.126;2022-07-24T13:01:58;11.25;;;10.15;;
54995;SDS011;40893;47.146;9.126;2022-07-24T13:04:31;11.07;;;9.98;;
54995;SDS011;40893;47.146;9.126;2022-07-24T13:06:59;11.57;;;10.52;;
54995;SDS011;40893;47.146;9.126;2022-07-24T13:09:27;13.18;;;10.60;;
54995;SDS011;40893;47.146;9.126;2022-07-24T13:11:54;12.35;;;10.75;;
54995;SDS011;40893;47.146;9.126;2022-07-24T13:14:21;11.02;;;9.90;;
54995;SDS011;40893;47.146;9.126;2022-07-24T13:16:49;14.88;;;10.85;;
54995;SDS011;40893;47.146;9.126;2022-07-24T13:19:16;11.50;;;10.18;;
54995;SDS011;40893;47.146;9.126;2022-07-24T13:21:43;14.07;;;11.02;;
54995;SDS011;40893;47.146;9.126;2022-07-24T13:24:10;11.23;;;10.15;;
54995;SDS011;40893;47.146;9.126;2022-07-24T13:26:36;13.65;;;10.50;;
54995;SDS011;40893;47.146;9.126;2022-07-24T13:29:03;11.27;;;10.18;;
54995;SDS011;40893;47.146;9.126;2022-07-24T13:31:30;11.83;;;10.83;;
54995;SDS011;40893;47.146;9.126;2022-07-24T13:33:55;13.80;;;10.40;;
54995;SDS011;40893;47.146;9.126;2022-07-24T13:36:21;12.60;;;11.38;;
54995;SDS011;40893;47.146;9.126;2022-07-24T13:38:46;11.95;;;10.57;;
54995;SDS011;40893;47.146;9.126;2022-07-24T13:41:12;12.52;;;11.32;;
54995;SDS011;40893;47.146;9.126;2022-07-24T13:43:39;11.95;;;10.75;;
54995;SDS011;40893;47.146;9.126;2022-07-24T13:46:04;11.27;;;10.15;;
54995;SDS011;40893;47.146;9.126;2022-07-24T13:48:31;11.43;;;10.32;;
54995;SDS011;40893;47.146;9.126;2022-07-24T13:50:56;11.90;;;10.80;;
54995;SDS011;40893;47.146;9.126;2022-07-24T13:53:22;11.10;;;10.10;;
54995;SDS011;40893;47.146;9.126;2022-07-24T13:55:48;11.40;;;10.25;;
54995;SDS011;40893;47.146;9.126;2022-07-24T13:58:14;11.18;;;10.15;;
54995;SDS011;40893;47.146;9.126;2022-07-24T14:00:39;11.40;;;10.25;;
54995;SDS011;40893;47.146;9.126;2022-07-24T14:03:05;15.55;;;10.00;;
54995;SDS011;40893;47.146;9.126;2022-07-24T14:05:31;11.50;;;10.40;;
54995;SDS011;40893;47.146;9.126;2022-07-24T14:07:56;11.85;;;10.75;;
54995;SDS011;40893;47.146;9.126;2022-07-24T14:10:22;11.73;;;10.35;;
54995;SDS011;40893;47.146;9.126;2022-07-24T14:12:48;12.00;;;10.80;;
54995;SDS011;40893;47.146;9.126;2022-07-24T14:15:14;11.98;;;10.77;;
54995;SDS011;40893;47.146;9.126;2022-07-24T14:17:40;11.52;;;10.32;;
54995;SDS011;40893;47.146;9.126;2022-07-24T14:20:08;14.00;;;10.98;;
54995;SDS011;40893;47.146;9.126;2022-07-24T14:22:35;11.40;;;10.30;;
54995;SDS011;40893;47.146;9.126;2022-07-24T14:25:02;11.63;;;10.23;;
54995;SDS011;40893;47.146;9.126;2022-07-24T14:27:32;11.13;;;10.13;;
54995;SDS011;40893;47.146;9.126;2022-07-24T14:29:57;12.18;;;10.32;;
54995;SDS011;40893;47.146;9.126;2022-07-24T14:32:23;11.75;;;10.35;;
54995;SDS011;40893;47.146;9.126;2022-07-24T14:34:49;12.63;;;10.02;;
54995;SDS011;40893;47.146;9.126;2022-07-24T14:37:14;10.77;;;9.77;;
54995;SDS011;40893;47.146;9.126;2022-07-24T14:39:40;12.15;;;11.05;;
54995;SDS011;40893;47.146;9.126;2022-07-24T14:42:06;11.25;;;10.10;;
54995;SDS011;40893;47.146;9.126;2022-07-24T14:44:32;12.52;;;10.60;;
54995;SDS011;40893;47.146;9.126;2022-07-24T14:46:58;13.82;;;10.63;;
54995;SDS011;40893;47.146;9.126;2022-07-24T14:49:26;11.15;;;10.00;;
54995;SDS011;40893;47.146;9.126;2022-07-24T14:51:52;12.05;;;10.77;;
54995;SDS011;40893;47.146;9.126;2022-07-24T14:54:18;12.68;;;10.65;;
54995;SDS011;40893;47.146;9.126;2022-07-24T14:56:44;11.10;;;10.10;;
54995;SDS011;40893;47.146;9.126;2022-07-24T14:59:09;11.20;;;9.98;;
54995;SDS011;40893;47.146;9.126;2022-07-24T15:01:35;11.02;;;10.02;;
54995;SDS011;40893;47.146;9.126;2022-07-24T15:04:01;11.40;;;10.15;;
54995;SDS011;40893;47.146;9.126;2022-07-24T15:06:27;12.68;;;10.55;;